createdAt,value
2024-05-09T00:01:52.325Z,79.54
2024-05-09T00:04:19.980Z,78.87
2024-05-09T00:06:46.653Z,79.98
2024-05-09T00:10:05.616Z,79.86
2024-05-09T00:12:35.780Z,80.44
2024-05-09T00:15:02.418Z,79.47
2024-05-09T00:17:29.197Z,80.25
2024-05-09T00:19:55.962Z,80.64
2024-05-09T00:22:22.596Z,80.32
2024-05-09T00:24:49.297Z,80.60
2024-05-09T00:27:16.190Z,80.64
2024-05-09T00:29:42.845Z,81.50
2024-05-09T00:32:09.589Z,80.63
2024-05-09T00:34:36.356Z,80.28
2024-05-09T00:37:03.134Z,80.17
2024-05-09T00:39:29.785Z,81.12
2024-05-09T00:41:56.421Z,80.58
2024-05-09T00:44:23.188Z,80.55
2024-05-09T00:50:36.376Z,80.17
2024-05-09T00:53:11.019Z,80.59
2024-05-09T00:55:39.369Z,81.47
2024-05-09T00:58:10.615Z,80.92
2024-05-09T01:00:40.292Z,79.92
2024-05-09T01:03:10.392Z,80.16
2024-05-09T01:05:39.597Z,80.52
2024-05-09T01:11:53.915Z,81.50
2024-05-09T01:14:20.668Z,81.88
2024-05-09T01:16:47.424Z,81.54
2024-05-09T01:19:35.647Z,80.64
2024-05-09T01:22:04.236Z,81.22
2024-05-09T01:24:30.935Z,82.25
2024-05-09T01:26:57.570Z,80.90
2024-05-09T01:29:24.406Z,81.67
2024-05-09T01:31:52.400Z,81.44
2024-05-09T01:34:19.254Z,81.92
2024-05-09T01:36:45.993Z,81.24
2024-05-09T01:39:12.613Z,80.76
2024-05-09T01:41:39.298Z,82.43
2024-05-09T01:44:06.057Z,81.97
2024-05-09T01:46:32.733Z,82.15
2024-05-09T01:52:47.164Z,82.01
2024-05-09T01:55:14.188Z,81.68
2024-05-09T01:57:40.808Z,82.29
2024-05-09T02:00:10.227Z,81.77
2024-05-09T02:02:37.391Z,81.61
2024-05-09T02:05:04.478Z,82.50
2024-05-09T02:07:31.185Z,82.17
2024-05-09T02:09:57.846Z,82.39
2024-05-09T02:16:14.258Z,82.12
2024-05-09T02:18:40.966Z,82.73
2024-05-09T02:25:08.055Z,83.19
2024-05-09T02:27:34.666Z,81.96
2024-05-09T02:30:01.780Z,83.26
2024-05-09T02:32:28.676Z,83.01
2024-05-09T02:34:55.520Z,83.31
2024-05-09T02:37:22.175Z,83.74
2024-05-09T02:39:48.808Z,83.43
2024-05-09T02:42:15.458Z,83.35
2024-05-09T02:44:42.097Z,83.20
2024-05-09T02:47:08.977Z,83.03
2024-05-09T02:49:35.801Z,83.00
2024-05-09T02:52:02.488Z,83.25
2024-05-09T02:54:29.105Z,83.75
2024-05-09T02:56:55.716Z,83.35
2024-05-09T02:59:22.616Z,82.40
2024-05-09T03:01:49.517Z,83.41
2024-05-09T03:04:16.342Z,83.62
2024-05-09T03:06:43.550Z,83.47
2024-05-09T03:09:10.348Z,83.41
2024-05-09T03:11:37.359Z,83.50
2024-05-09T03:14:04.132Z,83.09
2024-05-09T03:17:24.371Z,83.17
2024-05-09T03:19:51.377Z,83.94
2024-05-09T03:22:18.067Z,83.50
2024-05-09T03:24:44.839Z,83.90
2024-05-09T03:27:11.437Z,83.80
2024-05-09T03:29:38.095Z,84.12
2024-05-09T03:32:05.432Z,83.80
2024-05-09T03:35:22.233Z,83.83
2024-05-09T03:37:49.134Z,83.67
2024-05-09T03:40:20.898Z,84.54
2024-05-09T03:42:50.665Z,84.49
2024-05-09T03:45:17.303Z,83.84
2024-05-09T03:47:44.165Z,84.08
2024-05-09T03:50:18.273Z,83.67
2024-05-09T03:52:52.500Z,84.26
2024-05-09T03:55:19.162Z,83.14
2024-05-09T03:57:45.811Z,83.35
2024-05-09T04:00:18.190Z,83.88
2024-05-09T04:02:52.932Z,83.71
2024-05-09T04:05:19.676Z,83.49
2024-05-09T04:11:34.180Z,83.96
2024-05-09T04:14:01.031Z,84.21
2024-05-09T04:16:29.772Z,84.91
2024-05-09T04:18:56.502Z,85.03
2024-05-09T04:21:23.203Z,84.26
2024-05-09T04:23:49.849Z,84.39
2024-05-09T04:26:16.552Z,84.07
2024-05-09T04:28:43.192Z,84.32
2024-05-09T04:31:09.845Z,84.67
2024-05-09T04:33:36.660Z,84.40
2024-05-09T04:36:03.677Z,84.61
2024-05-09T04:38:30.414Z,84.36
2024-05-09T04:40:57.288Z,84.16
2024-05-09T04:43:24.056Z,83.98
2024-05-09T04:45:50.822Z,83.27
2024-05-09T04:48:17.640Z,83.36
2024-05-09T04:50:44.611Z,84.50
2024-05-09T04:53:16.205Z,84.35
2024-05-09T04:55:43.330Z,85.21
2024-05-09T04:58:10.559Z,84.41
2024-05-09T05:00:39.898Z,83.50
2024-05-09T05:03:10.762Z,83.41
2024-05-09T05:05:43.637Z,83.70
2024-05-09T05:08:16.272Z,84.15
2024-05-09T05:10:44.524Z,85.02
2024-05-09T05:13:23.810Z,84.81
2024-05-09T05:15:55.803Z,84.34
2024-05-09T05:18:24.189Z,83.92
2024-05-09T05:20:51.572Z,83.62
2024-05-09T05:23:20.247Z,83.91
2024-05-09T05:25:48.814Z,84.44
2024-05-09T05:28:16.484Z,83.68
2024-05-09T05:30:43.227Z,83.97
2024-05-09T05:33:14.932Z,83.27
2024-05-09T05:35:42.304Z,83.54
2024-05-09T05:38:10.071Z,83.66
2024-05-09T05:40:38.663Z,84.32
2024-05-09T05:46:53.970Z,82.92
2024-05-09T05:49:20.826Z,82.20
2024-05-09T05:51:47.599Z,82.08
2024-05-09T05:54:14.214Z,81.97
2024-05-09T05:56:40.976Z,82.49
2024-05-09T05:59:07.667Z,82.32
2024-05-09T06:01:34.462Z,81.82
2024-05-09T06:07:42.312Z,82.07
2024-05-09T06:10:17.257Z,82.06
2024-05-09T06:12:48.366Z,82.11
2024-05-09T06:15:15.139Z,81.28
2024-05-09T06:17:41.914Z,80.94
2024-05-09T06:20:16.634Z,81.16
2024-05-09T06:22:50.082Z,80.88
2024-05-09T06:25:16.904Z,80.40
2024-05-09T06:27:43.682Z,79.76
2024-05-09T06:30:21.087Z,79.44
2024-05-09T06:32:52.861Z,79.51
2024-05-09T06:35:19.648Z,78.91
2024-05-09T06:37:46.404Z,78.59
2024-05-09T06:40:17.384Z,77.95
2024-05-09T06:42:44.189Z,78.27
2024-05-09T06:45:10.885Z,77.56
2024-05-09T06:47:37.594Z,76.82
2024-05-09T06:50:08.338Z,76.16
2024-05-09T06:52:39.834Z,75.65
2024-05-09T06:55:06.593Z,75.56
2024-05-09T06:57:33.194Z,75.32
2024-05-09T07:00:00.998Z,74.21
2024-05-09T07:02:28.136Z,73.57
2024-05-09T07:04:54.926Z,73.20
2024-05-09T07:07:21.957Z,72.66
2024-05-09T07:09:48.596Z,72.58
2024-05-09T07:12:15.414Z,72.63
2024-05-09T07:14:42.171Z,72.00
2024-05-09T07:17:09.251Z,71.64
2024-05-09T07:19:36.118Z,71.54
2024-05-09T07:25:49.909Z,70.21
2024-05-09T07:28:18.318Z,70.11
2024-05-09T07:30:45.596Z,69.90
2024-05-09T07:33:23.397Z,69.46
2024-05-09T07:35:51.279Z,68.26
2024-05-09T07:38:17.996Z,68.49
2024-05-09T07:40:44.838Z,67.73
2024-05-09T07:43:12.981Z,67.55
2024-05-09T07:45:49.870Z,66.80
2024-05-09T07:52:37.611Z,63.14
2024-05-09T07:53:45.928Z,64.27
2024-05-09T07:56:16.509Z,63.90
2024-05-09T07:58:44.142Z,64.05
2024-05-09T08:01:11.208Z,63.79
2024-05-09T08:03:48.163Z,62.93
2024-05-09T08:06:16.245Z,62.91
2024-05-09T08:08:50.986Z,61.34
2024-05-09T08:11:17.733Z,60.87
2024-05-09T08:13:44.478Z,61.05
2024-05-09T08:16:11.276Z,59.73
2024-05-09T08:18:38.185Z,59.42
2024-05-09T08:21:05.307Z,57.85
2024-05-09T08:23:32.152Z,58.07
2024-05-09T08:25:58.804Z,58.35
2024-05-09T08:28:25.470Z,58.41
2024-05-09T08:30:52.347Z,57.41
2024-05-09T08:33:19.282Z,57.51
2024-05-09T08:35:46.050Z,58.02
2024-05-09T08:38:12.732Z,57.11
2024-05-09T08:40:39.518Z,57.15
2024-05-09T08:43:11.808Z,57.67
2024-05-09T08:45:44.569Z,56.50
2024-05-09T08:48:15.045Z,55.71
2024-05-09T08:50:43.494Z,55.86
2024-05-09T08:53:10.565Z,54.68
2024-05-09T08:55:41.523Z,55.98
2024-05-09T08:58:14.356Z,55.01
2024-05-09T09:04:31.193Z,53.91
2024-05-09T09:06:59.775Z,53.58
2024-05-09T09:09:28.024Z,53.90
2024-05-09T09:11:54.811Z,53.00
2024-05-09T09:15:06.494Z,53.15
2024-05-09T09:17:33.222Z,53.15
2024-05-09T09:20:00.482Z,51.99
2024-05-09T09:22:27.241Z,51.95
2024-05-09T09:24:53.941Z,51.61
2024-05-09T09:27:22.056Z,49.45
2024-05-09T09:29:49.102Z,48.18
2024-05-09T09:33:31.163Z,48.50
2024-05-09T09:35:58.174Z,49.59
2024-05-09T09:38:30.679Z,49.18
2024-05-09T09:40:58.158Z,48.55
2024-05-09T09:43:26.489Z,47.79
2024-05-09T09:45:55.323Z,48.37
2024-05-09T09:48:23.674Z,47.76
2024-05-09T09:50:55.412Z,47.60
2024-05-09T09:53:23.488Z,46.90
2024-05-09T09:55:52.139Z,46.91
2024-05-09T09:58:19.360Z,46.56
2024-05-09T10:00:46.577Z,46.29
2024-05-09T10:03:13.494Z,48.84
2024-05-09T10:05:43.981Z,49.12
2024-05-09T10:08:13.815Z,46.77
2024-05-09T10:10:46.566Z,46.73
2024-05-09T10:13:13.441Z,49.56
2024-05-09T10:19:28.116Z,45.74
2024-05-09T10:22:03.006Z,45.05
2024-05-09T10:24:52.947Z,44.66
2024-05-09T10:27:30.273Z,44.73
2024-05-09T10:29:58.592Z,45.81
2024-05-09T10:36:41.979Z,43.77
2024-05-09T10:39:08.779Z,44.93
2024-05-09T10:41:38.150Z,45.36
2024-05-09T10:44:12.072Z,46.02
2024-05-09T10:46:38.735Z,45.51
2024-05-09T10:49:07.858Z,45.98
2024-05-09T10:51:35.376Z,46.85
2024-05-09T10:54:20.660Z,46.09
2024-05-09T10:56:56.042Z,47.12
2024-05-09T10:59:22.669Z,43.79
2024-05-09T11:01:50.684Z,44.83
2024-05-09T11:08:05.462Z,45.63
2024-05-09T11:10:34.336Z,45.81
2024-05-09T11:13:01.535Z,43.59
2024-05-09T11:15:48.476Z,46.12
2024-05-09T11:18:26.447Z,45.34
2024-05-09T11:20:56.320Z,45.81
2024-05-09T11:23:27.275Z,45.05
2024-05-09T11:25:55.388Z,44.50
2024-05-09T11:28:22.985Z,45.16
2024-05-09T11:30:52.739Z,44.53
2024-05-09T11:33:20.448Z,45.75
2024-05-09T11:35:47.483Z,45.84
2024-05-09T11:38:14.351Z,44.33
2024-05-09T11:40:41.105Z,44.76
2024-05-09T11:43:08.041Z,44.59
2024-05-09T11:45:34.799Z,44.84
2024-05-09T11:48:01.709Z,46.87
2024-05-09T11:50:33.099Z,46.53
2024-05-09T11:53:02.393Z,47.01
2024-05-09T11:55:29.346Z,47.81
2024-05-09T11:57:56.935Z,46.01
2024-05-09T12:00:33.003Z,46.41
2024-05-09T12:04:00.134Z,44.79
2024-05-09T12:06:27.296Z,44.34
2024-05-09T12:08:54.094Z,45.10
2024-05-09T12:11:20.840Z,45.62
2024-05-09T12:13:47.620Z,46.19
2024-05-09T12:16:14.495Z,45.26
2024-05-09T12:18:41.342Z,47.82
2024-05-09T12:21:08.094Z,46.56
2024-05-09T12:23:34.770Z,45.49
2024-05-09T12:26:58.214Z,45.45
2024-05-09T12:29:25.198Z,45.52
2024-05-09T12:31:53.206Z,45.64
2024-05-09T12:34:21.604Z,45.24
2024-05-09T12:36:51.301Z,44.12
2024-05-09T12:39:19.366Z,43.64
2024-05-09T12:41:47.621Z,42.62
2024-05-09T12:44:15.657Z,43.69
2024-05-09T12:46:42.401Z,43.78
2024-05-09T12:49:09.594Z,43.02
2024-05-09T12:51:36.407Z,43.24
2024-05-09T12:54:03.163Z,44.51
2024-05-09T12:56:29.815Z,44.43
2024-05-09T12:58:56.553Z,44.82
2024-05-09T13:01:23.249Z,43.93
2024-05-09T13:03:50.227Z,43.98
2024-05-09T13:06:17.178Z,44.10
2024-05-09T13:08:43.885Z,43.76
2024-05-09T13:11:10.675Z,44.86
2024-05-09T13:13:37.441Z,43.32
2024-05-09T13:16:04.493Z,42.53
2024-05-09T13:18:33.674Z,43.66
2024-05-09T13:21:00.940Z,44.05
2024-05-09T13:23:27.765Z,44.32
2024-05-09T13:25:54.502Z,45.50
2024-05-09T13:28:22.722Z,45.30
2024-05-09T13:30:49.472Z,46.48
2024-05-09T13:33:16.330Z,46.16
2024-05-09T13:35:48.605Z,46.50
2024-05-09T13:38:23.144Z,45.79
2024-05-09T13:44:43.183Z,47.61
2024-05-09T13:51:12.193Z,46.72
2024-05-09T13:53:40.368Z,47.03
2024-05-09T13:56:08.827Z,45.87
2024-05-09T13:58:37.081Z,47.11
2024-05-09T14:01:05.252Z,46.15
2024-05-09T14:03:33.772Z,45.73
2024-05-09T14:06:02.398Z,47.19
2024-05-09T14:08:29.352Z,46.42
2024-05-09T14:10:56.307Z,45.32
2024-05-09T14:13:23.075Z,45.32
2024-05-09T14:15:50.171Z,45.56
2024-05-09T14:18:18.186Z,46.62
2024-05-09T14:20:44.944Z,44.68
2024-05-09T14:23:14.481Z,45.41
2024-05-09T14:25:43.580Z,45.77
2024-05-09T14:28:13.020Z,45.48
2024-05-09T14:30:40.398Z,45.56
2024-05-09T14:33:09.250Z,44.70
2024-05-09T14:35:39.407Z,45.35
2024-05-09T14:38:08.914Z,44.80
2024-05-09T14:40:42.056Z,45.06
2024-05-09T14:43:13.611Z,45.56
2024-05-09T14:45:41.138Z,45.82
2024-05-09T14:48:08.603Z,43.74
2024-05-09T14:50:38.704Z,45.15
2024-05-09T14:53:11.708Z,43.22
2024-05-09T14:55:40.642Z,43.58
2024-05-09T14:58:09.839Z,43.02
2024-05-09T15:00:41.310Z,41.80
2024-05-09T15:03:11.301Z,44.30
2024-05-09T15:05:38.189Z,44.58
2024-05-09T15:08:08.751Z,44.30
2024-05-09T15:10:37.002Z,43.44
2024-05-09T15:13:05.336Z,43.96
2024-05-09T15:15:32.777Z,42.52
2024-05-09T15:18:00.165Z,43.56
2024-05-09T15:20:33.664Z,43.25
2024-05-09T15:23:03.711Z,41.87
2024-05-09T15:25:30.778Z,42.04
2024-05-09T15:27:57.654Z,39.17
2024-05-09T15:30:30.608Z,39.56
2024-05-09T15:33:00.107Z,37.99
2024-05-09T15:36:41.035Z,39.18
2024-05-09T15:39:09.180Z,37.00
2024-05-09T15:42:02.683Z,37.09
2024-05-09T15:44:29.380Z,35.20
2024-05-09T15:46:56.418Z,35.04
2024-05-09T15:49:23.178Z,33.84
2024-05-09T15:51:49.948Z,35.21
2024-05-09T15:54:16.679Z,34.27
2024-05-09T15:56:47.274Z,33.91
2024-05-09T15:59:13.997Z,33.10
2024-05-09T16:01:40.843Z,32.76
2024-05-09T16:04:07.804Z,33.10
2024-05-09T16:07:08.538Z,34.49
2024-05-09T16:09:37.548Z,32.42
2024-05-09T16:12:05.355Z,31.50
2024-05-09T16:14:32.861Z,31.36
2024-05-09T16:17:03.828Z,31.93
2024-05-09T16:19:31.937Z,33.25
2024-05-09T16:22:00.314Z,33.07
2024-05-09T16:25:27.602Z,31.12
2024-05-09T16:28:51.558Z,29.46
2024-05-09T16:31:18.236Z,29.67
2024-05-09T16:33:45.263Z,30.36
2024-05-09T16:36:12.037Z,30.02
2024-05-09T16:38:40.047Z,29.75
2024-05-09T16:41:06.793Z,29.92
2024-05-09T16:43:33.742Z,30.02
2024-05-09T16:46:00.524Z,28.82
2024-05-09T16:48:53.796Z,28.49
2024-05-09T16:51:22.164Z,27.09
2024-05-09T16:53:49.989Z,27.76
2024-05-09T16:56:16.755Z,30.80
2024-05-09T16:58:43.610Z,30.67
2024-05-09T17:01:13.816Z,29.65
2024-05-09T17:03:40.945Z,29.76
2024-05-09T17:06:09.842Z,30.00
2024-05-09T17:08:37.832Z,27.57
2024-05-09T17:11:04.963Z,27.94
2024-05-09T17:13:32.535Z,27.40
2024-05-09T17:18:26.497Z,27.12
2024-05-09T17:20:53.179Z,26.40
2024-05-09T17:23:19.865Z,26.01
2024-05-09T17:25:46.656Z,25.69
2024-05-09T17:28:13.626Z,26.25
2024-05-09T17:34:28.175Z,27.18
2024-05-09T17:36:55.128Z,27.07
2024-05-09T17:39:21.772Z,26.91
2024-05-09T17:41:48.449Z,27.92
2024-05-09T17:44:15.117Z,30.22
2024-05-09T17:46:42.113Z,31.26
2024-05-09T17:52:55.955Z,35.99
2024-05-09T17:55:22.750Z,37.50
2024-05-09T17:57:49.977Z,38.99
2024-05-09T18:00:24.670Z,40.38
2024-05-09T18:03:00.722Z,39.80
2024-05-09T18:05:29.057Z,41.15
2024-05-09T18:07:57.106Z,42.46
2024-05-09T18:10:30.101Z,42.22
2024-05-09T18:16:49.901Z,44.01
2024-05-09T18:19:16.697Z,44.26
2024-05-09T18:22:23.748Z,44.98
2024-05-09T18:24:50.574Z,44.89
2024-05-09T18:27:19.085Z,46.01
2024-05-09T18:29:45.703Z,45.67
2024-05-09T18:32:12.368Z,46.19
2024-05-09T18:34:39.079Z,46.64
2024-05-09T18:37:05.803Z,48.52
2024-05-09T18:39:32.665Z,48.12
2024-05-09T18:42:01.158Z,49.33
2024-05-09T18:44:27.941Z,48.34
2024-05-09T18:46:55.043Z,48.49
2024-05-09T18:49:21.873Z,49.37
2024-05-09T18:51:48.743Z,49.93
2024-05-09T18:54:40.754Z,50.00
2024-05-09T18:57:07.502Z,51.34
2024-05-09T18:59:34.212Z,51.28
2024-05-09T19:02:00.993Z,51.03
2024-05-09T19:04:27.833Z,51.94
2024-05-09T19:07:04.377Z,51.88
2024-05-09T19:09:31.106Z,52.34
2024-05-09T19:12:00.577Z,52.23
2024-05-09T19:14:27.286Z,52.74
2024-05-09T19:20:36.256Z,53.51
2024-05-09T19:23:04.824Z,54.26
2024-05-09T19:25:32.170Z,54.63
2024-05-09T19:27:59.186Z,55.10
2024-05-09T19:30:34.992Z,55.26
2024-05-09T19:33:07.012Z,55.67
2024-05-09T19:35:33.798Z,55.78
2024-05-09T19:38:00.710Z,56.32
2024-05-09T19:40:31.818Z,56.10
2024-05-09T19:43:01.782Z,55.82
2024-05-09T19:45:29.190Z,56.17
2024-05-09T19:47:56.384Z,56.39
2024-05-09T19:50:31.696Z,56.78
2024-05-09T19:53:06.021Z,56.82
2024-05-09T19:55:33.240Z,57.13
2024-05-09T19:58:01.656Z,56.90
2024-05-09T20:00:35.687Z,57.17
2024-05-09T20:03:04.247Z,57.48
2024-05-09T20:05:31.458Z,57.75
2024-05-09T20:11:46.025Z,58.64
2024-05-09T20:14:12.782Z,59.03
2024-05-09T20:16:39.421Z,59.09
2024-05-09T20:19:06.228Z,59.16
2024-05-09T20:21:33.001Z,59.47
2024-05-09T20:23:59.707Z,59.69
2024-05-09T20:26:29.860Z,59.85
2024-05-09T20:28:57.587Z,59.88
2024-05-09T20:31:24.601Z,59.76
2024-05-09T20:33:51.445Z,59.98
2024-05-09T20:36:18.175Z,60.36
2024-05-09T20:38:53.802Z,60.10
2024-05-09T20:41:20.448Z,60.75
2024-05-09T20:43:47.103Z,61.02
2024-05-09T20:46:16.932Z,60.92
2024-05-09T20:48:43.780Z,61.29
2024-05-09T20:51:10.595Z,61.51
2024-05-09T20:53:37.205Z,61.73
2024-05-09T20:56:04.050Z,61.94
2024-05-09T21:02:18.103Z,62.52
2024-05-09T21:04:45.039Z,62.72
2024-05-09T21:07:11.969Z,63.02
2024-05-09T21:09:38.755Z,62.92
2024-05-09T21:12:05.545Z,62.86
2024-05-09T21:18:13.679Z,63.20
2024-05-09T21:20:40.427Z,63.58
2024-05-09T21:23:07.207Z,63.59
2024-05-09T21:25:49.378Z,63.28
2024-05-09T21:28:16.107Z,64.04
2024-05-09T21:34:24.088Z,64.85
2024-05-09T21:36:50.831Z,64.70
2024-05-09T21:39:17.542Z,64.43
2024-05-09T21:41:44.178Z,64.12
2024-05-09T21:44:10.901Z,64.57
2024-05-09T21:46:37.706Z,64.87
2024-05-09T21:49:04.476Z,65.25
2024-05-09T21:51:31.922Z,65.07
2024-05-09T21:57:45.955Z,65.15
2024-05-09T22:00:28.206Z,65.50
2024-05-09T22:03:21.651Z,65.64
2024-05-09T22:05:48.339Z,66.19
2024-05-09T22:08:15.057Z,66.38
2024-05-09T22:10:41.948Z,66.12
2024-05-09T22:13:43.085Z,65.97
2024-05-09T22:19:50.440Z,66.71
2024-05-09T22:22:17.294Z,66.74
2024-05-09T22:24:44.080Z,67.26
2024-05-09T22:27:11.928Z,66.77
2024-05-09T22:29:39.012Z,66.83
2024-05-09T22:32:06.014Z,67.08
2024-05-09T22:34:32.719Z,67.11
2024-05-09T22:36:59.557Z,67.69
2024-05-09T22:39:26.360Z,67.26
2024-05-09T22:41:53.976Z,67.75
2024-05-09T22:44:20.619Z,67.54
2024-05-09T22:46:47.243Z,67.82
2024-05-09T22:49:13.980Z,67.67
2024-05-09T22:51:40.811Z,68.27
2024-05-09T22:54:07.805Z,68.02
2024-05-09T22:56:34.431Z,67.93
2024-05-09T22:59:01.332Z,68.03
2024-05-09T23:01:28.157Z,67.67
2024-05-09T23:03:54.998Z,67.59
2024-05-09T23:06:21.927Z,68.21
2024-05-09T23:08:48.606Z,68.51
2024-05-09T23:11:15.442Z,68.71
2024-05-09T23:13:42.168Z,68.21
2024-05-09T23:16:17.814Z,68.12
2024-05-09T23:18:44.668Z,68.48
2024-05-09T23:21:11.403Z,68.41
2024-05-09T23:23:38.023Z,68.61
2024-05-09T23:26:05.329Z,68.92
2024-05-09T23:28:32.142Z,68.96
2024-05-09T23:30:58.829Z,68.87
2024-05-09T23:33:25.918Z,68.89
2024-05-09T23:35:52.549Z,69.12
2024-05-09T23:38:22.481Z,69.21
2024-05-09T23:40:51.046Z,69.60
2024-05-09T23:43:37.506Z,69.36
2024-05-09T23:46:04.305Z,69.27
2024-05-09T23:48:31.025Z,69.55
2024-05-09T23:50:57.698Z,69.71
2024-05-09T23:57:11.795Z,70.06
